Time;durP1;ratioP1;P1;durP2;ratioP2;P2;SDS_P1;SDS_P2;PMS_P1;PMS_P2;Temp;Humidity;BMP_temperature;BMP_pressure;BME280_temperature;BME280_humidity;BME280_pressure;Samples;Min_cycle;Max_cycle;Signal;HPM_P1;HPM_P2
2023/05/17 00:00:58;;;;;;;0.15;0.15;;;23.10;39.30;;;;;;6383736;27;19926;-59
2023/05/17 00:03:59;;;;;;;;;;;22.70;38.70;;;;;;6387039;27;20035;-59
2023/05/17 00:07:01;;;;;;;0.15;0.15;;;22.90;39.00;;;;;;6387129;27;20348;-59
2023/05/17 00:10:03;;;;;;;0.28;0.20;;;22.70;38.80;;;;;;6390999;27;20512;-58
2023/05/17 00:13:05;;;;;;;0.30;0.20;;;22.80;38.90;;;;;;6390961;27;20035;-58
2023/05/17 00:16:07;;;;;;;0.30;0.30;;;22.80;38.80;;;;;;6391554;27;20043;-58
2023/05/17 00:19:08;;;;;;;0.35;0.20;;;22.80;38.70;;;;;;6394084;27;20543;-58
2023/05/17 00:22:13;;;;;;;0.40;0.25;;;22.70;38.70;;;;;;6394578;27;20042;-58
2023/05/17 00:25:17;;;;;;;0.30;0.20;;;22.70;38.70;;;;;;6395545;27;20099;-58
2023/05/17 00:28:19;;;;;;;;;;;22.70;38.80;;;;;;6395566;27;20023;-58
2023/05/17 00:31:20;;;;;;;0.30;0.20;;;22.50;39.00;;;;;;6394930;27;20385;-59
2023/05/17 00:34:22;;;;;;;;;;;22.80;38.90;;;;;;6389620;27;20547;-58
2023/05/17 00:37:24;;;;;;;0.20;0.20;;;22.70;39.20;;;;;;6393236;27;20330;-58
2023/05/17 00:40:27;;;;;;;0.30;0.20;;;22.80;38.90;;;;;;6393174;27;20094;-58
2023/05/17 00:43:29;;;;;;;0.30;0.20;;;22.70;39.00;;;;;;6391540;27;20606;-58
2023/05/17 00:46:32;;;;;;;0.30;0.20;;;22.70;38.90;;;;;;6392848;27;20043;-58
2023/05/17 00:49:37;;;;;;;0.52;0.40;;;22.60;38.70;;;;;;6392864;27;20077;-59
2023/05/17 00:52:39;;;;;;;0.35;0.20;;;22.60;38.60;;;;;;6391666;27;20041;-59
2023/05/17 00:55:42;;;;;;;0.40;0.28;;;22.70;38.90;;;;;;6391132;27;20047;-58
2023/05/17 00:58:44;;;;;;;0.25;0.20;;;22.50;38.60;;;;;;6391910;27;20039;-58
2023/05/17 01:01:47;;;;;;;0.30;0.20;;;22.60;38.80;;;;;;6390234;27;20109;-58
2023/05/17 01:04:49;;;;;;;0.22;0.20;;;22.80;38.80;;;;;;6389843;27;20043;-58
2023/05/17 01:07:51;;;;;;;0.20;0.20;;;22.40;38.70;;;;;;6389149;27;20043;-58
2023/05/17 01:11:06;;;;;;;0.32;0.20;;;22.60;38.80;;;;;;6390042;27;20049;-58
2023/05/17 01:14:18;;;;;;;0.45;0.20;;;22.60;38.80;;;;;;6390029;27;20046;-58
2023/05/17 01:17:28;;;;;;;0.30;0.20;;;22.50;38.70;;;;;;6392452;27;20528;-58
2023/05/17 01:20:36;;;;;;;0.40;0.20;;;22.60;38.80;;;;;;6392736;27;20039;-59
2023/05/17 01:23:54;;;;;;;0.20;0.17;;;22.50;38.70;;;;;;6394086;27;20035;-58
2023/05/17 01:26:59;;;;;;;0.22;0.20;;;22.60;38.90;;;;;;6392523;27;20412;-58
2023/05/17 01:30:02;;;;;;;0.30;0.30;;;22.50;38.70;;;;;;6393666;27;20088;-58
2023/05/17 01:33:04;;;;;;;0.30;0.30;;;22.40;38.80;;;;;;6393313;27;20299;-58
2023/05/17 01:36:07;;;;;;;0.28;0.20;;;22.20;38.60;;;;;;6393196;27;20038;-58
2023/05/17 01:39:09;;;;;;;0.15;0.10;;;22.60;38.80;;;;;;6375246;27;20540;-58
2023/05/17 01:42:18;;;;;;;0.22;0.22;;;22.50;38.90;;;;;;6393678;27;20080;-58
2023/05/17 01:45:23;;;;;;;0.47;0.20;;;22.50;38.80;;;;;;6393202;27;20088;-58
2023/05/17 01:48:33;;;;;;;0.28;0.20;;;22.30;38.80;;;;;;6392736;27;20539;-58
2023/05/17 01:51:44;;;;;;;0.35;0.22;;;22.00;38.70;;;;;;6393025;27;20127;-58
2023/05/17 01:54:50;;;;;;;0.28;0.20;;;22.40;38.90;;;;;;6392795;27;20433;-58
2023/05/17 01:57:54;;;;;;;0.30;0.20;;;22.30;38.90;;;;;;6393185;27;20047;-58
2023/05/17 02:00:59;;;;;;;0.22;0.20;;;22.50;39.00;;;;;;6374774;27;20091;-58
2023/05/17 02:04:01;;;;;;;0.10;0.10;;;22.00;38.70;;;;;;6393018;27;20142;-58
2023/05/17 02:07:06;;;;;;;0.32;0.28;;;22.50;39.00;;;;;;6392573;27;20058;-58
2023/05/17 02:10:07;;;;;;;;;;;22.80;39.30;;;;;;6392179;27;20039;-58
2023/05/17 02:13:11;;;;;;;0.32;0.20;;;22.20;39.20;;;;;;6392611;27;20018;-59
2023/05/17 02:16:13;;;;;;;0.50;0.35;;;22.50;39.20;;;;;;6392434;27;20046;-58
2023/05/17 02:19:14;;;;;;;0.30;0.10;;;22.40;39.10;;;;;;6392294;27;20042;-58
2023/05/17 02:22:19;;;;;;;0.20;0.20;;;22.30;39.20;;;;;;6392331;27;20039;-58
2023/05/17 02:25:20;;;;;;;0.40;0.20;;;22.00;37.20;;;;;;6392639;27;20031;-59
2023/05/17 02:28:22;;;;;;;0.32;0.20;;;22.40;39.30;;;;;;6391128;27;20116;-58
2023/05/17 02:31:25;;;;;;;0.40;0.40;;;22.40;39.20;;;;;;6392776;27;20041;-58
2023/05/17 02:34:27;;;;;;;0.52;0.30;;;22.20;39.20;;;;;;6392193;27;20065;-58
2023/05/17 02:37:28;;;;;;;0.20;0.20;;;22.30;39.20;;;;;;6392139;27;20053;-58
2023/05/17 02:40:31;;;;;;;0.20;0.20;;;22.40;39.50;;;;;;6391743;27;20309;-58
2023/05/17 02:43:33;;;;;;;;;;;22.40;39.40;;;;;;6392564;27;20038;-58
2023/05/17 02:46:34;;;;;;;0.43;0.30;;;22.00;39.50;;;;;;6392228;27;19926;-58
2023/05/17 02:49:39;;;;;;;0.13;0.13;;;22.30;39.50;;;;;;6392487;27;20046;-58
2023/05/17 02:52:41;;;;;;;0.32;0.13;;;21.90;39.30;;;;;;6391938;27;20396;-58
2023/05/17 02:55:42;;;;;;;0.73;0.40;;;22.30;39.40;;;;;;6391333;27;20034;-58
2023/05/17 02:58:44;;;;;;;0.20;0.20;;;22.30;39.50;;;;;;6390687;27;20508;-58
2023/05/17 03:01:48;;;;;;;0.30;0.20;;;22.30;39.50;;;;;;6388126;27;20219;-58
2023/05/17 03:04:51;;;;;;;0.30;0.28;;;22.30;39.60;;;;;;6390829;27;20129;-58
2023/05/17 03:07:53;;;;;;;0.20;0.20;;;22.30;39.50;;;;;;6385521;27;20165;-58
2023/05/17 03:10:54;;;;;;;;;;;22.40;39.70;;;;;;6391858;27;20039;-58
2023/05/17 03:13:56;;;;;;;0.10;0.10;;;22.00;39.80;;;;;;6392441;27;19919;-58
2023/05/17 03:17:01;;;;;;;0.30;0.30;;;22.40;39.80;;;;;;6391832;27;20038;-58
2023/05/17 03:20:03;;;;;;;0.20;0.20;;;22.30;39.70;;;;;;6391555;27;20035;-58
2023/05/17 03:23:05;;;;;;;0.40;0.30;;;21.80;39.50;;;;;;6373655;27;20041;-58
2023/05/17 03:26:11;;;;;;;0.40;0.30;;;22.20;39.70;;;;;;6390796;27;20408;-58
2023/05/17 03:29:19;;;;;;;0.40;0.30;;;22.20;39.80;;;;;;6391260;27;20031;-58
2023/05/17 03:32:25;;;;;;;0.20;0.15;;;22.50;39.80;;;;;;6372365;27;20569;-58
2023/05/17 03:35:27;;;;;;;0.60;0.50;;;22.20;39.80;;;;;;6387040;27;20065;-58
2023/05/17 03:38:30;;;;;;;0.22;0.20;;;22.40;40.00;;;;;;6391600;27;20114;-58
2023/05/17 03:41:32;;;;;;;;;;;22.20;39.90;;;;;;6392335;27;20457;-58
2023/05/17 03:44:35;;;;;;;0.32;0.20;;;22.20;39.80;;;;;;6391699;27;19919;-58
2023/05/17 03:47:37;;;;;;;0.73;0.22;;;21.80;39.70;;;;;;6391213;27;20540;-58
2023/05/17 03:50:40;;;;;;;0.30;0.20;;;21.80;39.80;;;;;;6392754;27;20039;-58
2023/05/17 03:53:42;;;;;;;0.13;0.10;;;22.30;40.20;;;;;;6395679;27;20134;-58
2023/05/17 03:56:46;;;;;;;0.35;0.30;;;22.20;40.10;;;;;;6395378;27;20411;-58
2023/05/17 03:59:51;;;;;;;0.40;0.30;;;22.10;40.20;;;;;;6394720;27;20066;-58
2023/05/17 04:02:54;;;;;;;0.30;0.20;;;22.10;40.10;;;;;;6394651;27;20093;-58
2023/05/17 04:06:05;;;;;;;0.20;0.10;;;22.10;40.30;;;;;;6394435;27;20042;-58
2023/05/17 04:09:08;;;;;;;0.63;0.20;;;21.60;39.90;;;;;;6394636;27;20035;-59
2023/05/17 04:12:09;;;;;;;0.17;0.17;;;22.10;40.40;;;;;;6394426;27;20122;-58
2023/05/17 04:15:11;;;;;;;;;;;22.10;40.40;;;;;;6395924;27;20030;-59
2023/05/17 04:18:14;;;;;;;0.40;0.32;;;22.20;40.90;;;;;;6393129;27;19926;-58
2023/05/17 04:21:16;;;;;;;0.38;0.30;;;22.10;40.60;;;;;;6393171;27;20039;-58
2023/05/17 04:24:18;;;;;;;0.20;0.20;;;22.10;40.80;;;;;;6393410;27;20392;-59
2023/05/17 04:27:22;;;;;;;0.30;0.22;;;22.10;40.80;;;;;;6393930;27;20330;-59
2023/05/17 04:30:24;;;;;;;0.40;0.20;;;21.80;40.90;;;;;;6392701;27;20035;-59
2023/05/17 04:33:26;;;;;;;0.35;0.30;;;22.10;41.10;;;;;;6393299;27;20041;-59
2023/05/17 04:36:30;;;;;;;0.30;0.30;;;22.10;41.30;;;;;;6393343;27;20050;-59
2023/05/17 04:39:35;;;;;;;0.32;0.20;;;22.00;41.20;;;;;;6393068;27;20045;-58
2023/05/17 04:42:37;;;;;;;0.20;0.20;;;22.10;39.30;;;;;;6393144;27;20122;-59
2023/05/17 04:45:43;;;;;;;0.68;0.38;;;22.10;41.40;;;;;;6393046;27;20531;-59
2023/05/17 04:48:45;;;;;;;0.30;0.20;;;21.90;41.50;;;;;;6393196;27;20105;-58
2023/05/17 04:51:47;;;;;;;0.25;0.20;;;22.10;41.70;;;;;;6393205;27;20546;-58
2023/05/17 04:54:49;;;;;;;;;;;22.10;41.90;;;;;;6392401;27;20039;-59
2023/05/17 04:57:54;;;;;;;0.40;0.30;;;22.10;41.90;;;;;;6392604;27;19960;-59
2023/05/17 05:00:57;;;;;;;0.85;0.43;;;21.90;41.90;;;;;;6392961;27;20037;-58
2023/05/17 05:03:59;;;;;;;2.03;0.47;;;22.00;41.90;;;;;;6392176;27;20031;-58
2023/05/17 05:07:03;;;;;;;0.60;0.40;;;21.90;42.10;;;;;;6391335;27;20194;-58
2023/05/17 05:10:05;;;;;;;1.80;0.70;;;22.00;42.30;;;;;;6391526;27;20634;-59
2023/05/17 05:13:08;;;;;;;1.75;0.85;;;21.90;42.50;;;;;;6373118;27;20401;-59
2023/05/17 05:16:11;;;;;;;2.10;0.82;;;21.90;40.60;;;;;;6391365;27;20408;-59
2023/05/17 05:19:12;;;;;;;2.75;0.90;;;21.50;42.90;;;;;;6391025;27;20043;-59
2023/05/17 05:22:14;;;;;;;1.10;0.60;;;21.80;43.20;;;;;;6391981;27;20041;-58
2023/05/17 05:25:16;;;;;;;2.58;1.10;;;21.50;43.40;;;;;;6391765;27;20326;-59
2023/05/17 05:28:19;;;;;;;3.28;1.10;;;21.80;43.80;;;;;;6391831;27;20042;-58
2023/05/17 05:31:21;;;;;;;2.45;0.90;;;21.20;44.00;;;;;;6391973;27;20393;-58
2023/05/17 05:34:27;;;;;;;2.63;0.85;;;21.60;44.40;;;;;;6393208;27;20042;-59
2023/05/17 05:37:29;;;;;;;3.67;0.98;;;21.40;44.70;;;;;;6390266;27;20042;-59
2023/05/17 05:40:30;;;;;;;;;;;21.70;45.10;;;;;;6390696;27;20043;-58
2023/05/17 05:43:34;;;;;;;1.92;0.70;;;21.90;46.00;;;;;;6390599;27;19967;-58
2023/05/17 05:46:36;;;;;;;2.33;0.50;;;21.50;46.00;;;;;;6390623;27;20030;-59
2023/05/17 05:49:39;;;;;;;0.80;0.47;;;21.30;46.20;;;;;;6389794;27;20551;-59
2023/05/17 05:52:41;;;;;;;;;;;21.40;46.50;;;;;;6389644;27;20046;-59
2023/05/17 05:55:42;;;;;;;1.13;0.28;;;21.80;46.90;;;;;;6389387;27;19919;-59
2023/05/17 05:58:44;;;;;;;0.70;0.28;;;21.50;46.40;;;;;;6388494;27;20717;-59
2023/05/17 06:01:47;;;;;;;0.60;0.40;;;21.40;47.00;;;;;;6388261;27;20385;-59
2023/05/17 06:04:50;;;;;;;0.20;0.17;;;21.40;46.50;;;;;;6387818;27;20038;-59
2023/05/17 06:07:52;;;;;;;0.85;0.30;;;21.60;47.00;;;;;;6387937;27;20194;-59
2023/05/17 06:10:53;;;;;;;;;;;21.30;46.90;;;;;;6387084;27;20039;-58
2023/05/17 06:13:55;;;;;;;0.55;0.30;;;21.70;47.30;;;;;;6385100;27;19919;-58
2023/05/17 06:16:56;;;;;;;;;;;21.50;46.90;;;;;;6387539;27;20073;-59
2023/05/17 06:19:58;;;;;;;;;;;21.50;47.20;;;;;;6386907;27;19930;-59
2023/05/17 06:23:00;;;;;;;0.57;0.30;;;21.60;46.70;;;;;;6384938;27;20010;-58
2023/05/17 06:26:02;;;;;;;0.75;0.45;;;21.50;47.00;;;;;;6384990;27;20039;-59
2023/05/17 06:29:03;;;;;;;0.52;0.30;;;21.70;47.20;;;;;;6384706;27;20042;-58
2023/05/17 06:32:06;;;;;;;;;;;21.60;47.70;;;;;;6385539;27;20043;-58
2023/05/17 06:35:08;;;;;;;1.17;0.50;;;21.20;47.70;;;;;;6383732;27;19927;-58
2023/05/17 06:38:10;;;;;;;0.50;0.40;;;21.70;48.00;;;;;;6381446;27;20031;-58
2023/05/17 06:41:12;;;;;;;0.40;0.30;;;21.60;48.30;;;;;;6379773;27;20558;-58
2023/05/17 06:44:13;;;;;;;0.40;0.30;;;21.70;48.60;;;;;;6379838;27;20034;-57
2023/05/17 06:47:17;;;;;;;0.73;0.20;;;21.30;48.50;;;;;;6377357;27;20744;-57
2023/05/17 06:50:18;;;;;;;0.20;0.20;;;21.80;49.10;;;;;;6378492;27;20038;-58
2023/05/17 06:53:20;;;;;;;;;;;21.90;49.10;;;;;;6376855;27;20107;-58
2023/05/17 06:56:21;;;;;;;0.32;0.20;;;22.00;49.50;;;;;;6374318;27;19926;-54
2023/05/17 06:59:23;;;;;;;1.00;0.30;;;21.70;49.00;;;;;;6374566;27;20066;-55
2023/05/17 07:02:25;;;;;;;;;;;21.90;49.60;;;;;;6372861;27;20030;-54
2023/05/17 07:05:27;;;;;;;1.08;0.20;;;21.80;49.80;;;;;;6368252;27;19915;-56
2023/05/17 07:08:30;;;;;;;0.50;0.30;;;21.70;49.70;;;;;;6370426;27;20737;-57
2023/05/17 07:11:31;;;;;;;;;;;21.90;49.70;;;;;;6370995;27;20060;-57
2023/05/17 07:14:33;;;;;;;0.50;0.25;;;22.10;50.20;;;;;;6371047;27;20533;-55
2023/05/17 07:17:35;;;;;;;0.20;0.20;;;21.90;49.60;;;;;;6354962;27;20127;-51
2023/05/17 07:20:37;;;;;;;0.73;0.32;;;22.10;72.40;;;;;;6377862;27;20035;-55
2023/05/17 07:23:39;;;;;;;0.50;0.30;;;21.90;52.30;;;;;;6376387;27;20039;-57
2023/05/17 07:26:40;;;;;;;;;;;21.90;54.90;;;;;;6377392;27;20657;-55
2023/05/17 07:31:32;;;;;;;0.30;0.30;;;21.80;46.70;;;;;;6452405;27;20169;-55
2023/05/17 07:34:34;;;;;;;2.20;0.68;;;22.20;47.60;;;;;;6424251;27;20556;-55
2023/05/17 07:37:36;;;;;;;1.55;0.60;;;21.90;47.70;;;;;;6423476;27;20060;-55
2023/05/17 07:40:37;;;;;;;0.88;0.65;;;22.10;47.80;;;;;;6419181;27;20035;-54
2023/05/17 07:43:41;;;;;;;;;;;21.90;48.00;;;;;;6419883;27;20034;-55
2023/05/17 07:46:43;;;;;;;1.02;0.40;;;21.80;47.80;;;;;;6421961;27;19923;-55
2023/05/17 07:49:44;;;;;;;0.82;0.63;;;21.90;47.70;;;;;;6417686;27;20647;-56
2023/05/17 07:52:46;;;;;;;0.70;0.35;;;22.30;47.80;;;;;;6420734;27;20064;-55
2023/05/17 07:55:47;;;;;;;;;;;22.30;47.80;;;;;;6420519;27;20034;-54
2023/05/17 07:58:51;;;;;;;0.43;0.38;;;22.40;48.50;;;;;;6397371;27;20536;-54
2023/05/17 08:01:53;;;;;;;1.52;0.50;;;22.40;47.70;;;;;;6394817;27;20114;-57
2023/05/17 08:04:55;;;;;;;0.60;0.40;;;21.90;47.20;;;;;;6396821;27;20034;-52
2023/05/17 08:07:59;;;;;;;0.90;0.40;;;22.30;47.40;;;;;;6396310;27;20568;-56
2023/05/17 08:11:00;;;;;;;1.83;0.98;;;22.20;47.20;;;;;;6397191;27;20637;-57
2023/05/17 08:14:02;;;;;;;1.23;0.75;;;22.40;47.30;;;;;;6397186;27;20083;-59
2023/05/17 08:17:04;;;;;;;2.03;1.20;;;22.10;46.80;;;;;;6379005;27;20038;-57
2023/05/17 08:20:07;;;;;;;1.60;0.75;;;22.10;46.80;;;;;;6396090;27;20042;-57
2023/05/17 08:23:08;;;;;;;0.60;0.55;;;22.30;46.80;;;;;;6396108;27;20037;-56
2023/05/17 08:26:11;;;;;;;1.00;0.40;;;21.90;46.60;;;;;;6395684;27;20690;-55
2023/05/17 08:29:13;;;;;;;1.58;0.80;;;22.40;46.70;;;;;;6393914;27;20034;-53
2023/05/17 08:32:15;;;;;;;;;;;21.00;46.00;;;;;;6390970;27;20038;-54
2023/05/17 08:35:16;;;;;;;1.00;0.50;;;22.30;46.80;;;;;;6392382;27;20472;-59
2023/05/17 08:38:20;;;;;;;;;;;23.20;46.90;;;;;;6393101;27;20112;-56
2023/05/17 08:41:22;;;;;;;0.55;0.45;;;21.90;46.30;;;;;;6385384;27;19919;-56
2023/05/17 08:44:26;;;;;;;3.28;1.40;;;22.00;46.30;;;;;;6375898;27;20034;-54
2023/05/17 08:47:33;;;;;;;0.70;0.70;;;22.50;46.10;;;;;;6357882;27;20030;-54
2023/05/17 08:50:34;;;;;;;0.50;0.40;;;22.50;44.70;;;;;;6369604;27;20123;-52
2023/05/17 08:53:36;;;;;;;0.95;0.68;;;22.50;45.70;;;;;;6358564;27;20031;-54
2023/05/17 08:56:41;;;;;;;0.70;0.50;;;22.50;46.10;;;;;;6360479;27;20042;-53
2023/05/17 08:59:45;;;;;;;0.77;0.63;;;22.50;45.80;;;;;;6356540;27;20042;-53
2023/05/17 09:02:48;;;;;;;0.77;0.70;;;22.60;45.20;;;;;;6355065;27;20031;-53
2023/05/17 09:05:51;;;;;;;0.80;0.60;;;22.60;45.10;;;;;;6365547;27;20604;-54
2023/05/17 09:08:53;;;;;;;0.65;0.50;;;22.50;44.80;;;;;;6376444;27;20566;-50
2023/05/17 09:11:55;;;;;;;0.73;0.50;;;22.50;44.60;;;;;;6361209;27;20039;-54
2023/05/17 09:15:12;;;;;;;0.85;0.43;;;22.60;44.80;;;;;;6380415;27;20054;-50
2023/05/17 09:18:15;;;;;;;0.98;0.50;;;22.70;44.50;;;;;;6380589;27;20042;-48
2023/05/17 09:21:21;;;;;;;1.63;0.70;;;22.50;44.40;;;;;;6376251;27;20631;-51
2023/05/17 09:24:28;;;;;;;0.93;0.65;;;22.60;44.20;;;;;;6357168;27;20046;-51
2023/05/17 09:27:30;;;;;;;0.50;0.50;;;22.30;44.00;;;;;;6356708;27;20035;-53
2023/05/17 09:30:36;;;;;;;1.23;0.73;;;22.60;44.00;;;;;;6374924;27;20262;-49
2023/05/17 09:33:45;;;;;;;0.93;0.50;;;22.70;43.90;;;;;;6358658;27;20110;-52
2023/05/17 09:36:47;;;;;;;0.70;0.50;;;22.50;43.60;;;;;;6361645;27;20039;-51
2023/05/17 09:39:48;;;;;;;0.52;0.50;;;22.60;43.70;;;;;;6380676;27;20038;-53
2023/05/17 09:42:50;;;;;;;;;;;22.90;43.60;;;;;;6380695;27;20047;-53
2023/05/17 09:45:55;;;;;;;1.15;0.70;;;22.70;43.70;;;;;;6378153;27;19919;-54
2023/05/17 09:49:00;;;;;;;0.90;0.70;;;22.70;43.30;;;;;;6376146;27;20486;-52
2023/05/17 09:52:07;;;;;;;0.93;0.75;;;22.80;43.20;;;;;;6353950;27;20034;-53
2023/05/17 09:55:10;;;;;;;0.70;0.60;;;22.50;42.80;;;;;;6372520;27;20031;-50
2023/05/17 09:58:12;;;;;;;1.88;0.70;;;22.70;42.90;;;;;;6347901;27;20038;-51
2023/05/17 10:01:15;;;;;;;1.13;0.60;;;22.70;42.80;;;;;;6370471;27;20098;-52
2023/05/17 10:04:22;;;;;;;0.90;0.57;;;22.90;42.70;;;;;;6366609;27;20030;-49
2023/05/17 10:07:25;;;;;;;0.75;0.70;;;22.80;42.40;;;;;;6367287;27;20041;-49
2023/05/17 10:10:26;;;;;;;1.73;1.10;;;22.70;42.20;;;;;;6329805;27;20030;-50
2023/05/17 10:13:33;;;;;;;1.08;0.77;;;22.80;42.00;;;;;;6369762;27;20534;-51
2023/05/17 10:16:36;;;;;;;0.88;0.80;;;22.80;41.80;;;;;;6337463;27;20043;-49
2023/05/17 10:19:39;;;;;;;1.17;0.90;;;22.90;41.70;;;;;;6370733;27;20034;-49
2023/05/17 10:22:41;;;;;;;1.05;0.80;;;22.80;41.50;;;;;;6367946;27;20084;-52
2023/05/17 10:25:44;;;;;;;1.10;0.82;;;22.90;41.20;;;;;;6369261;27;20099;-52
2023/05/17 10:28:49;;;;;;;2.25;1.00;;;22.80;41.10;;;;;;6365915;27;20030;-52
2023/05/17 10:31:51;;;;;;;1.17;0.70;;;22.40;40.70;;;;;;6364646;27;20030;-54
2023/05/17 10:34:54;;;;;;;0.95;0.80;;;23.00;40.70;;;;;;6362450;27;20022;-49
2023/05/17 10:38:12;;;;;;;1.17;0.85;;;23.20;40.20;;;;;;6346343;27;20027;-54
2023/05/17 10:41:16;;;;;;;1.23;0.90;;;22.90;39.70;;;;;;6364561;27;20066;-50
2023/05/17 10:44:18;;;;;;;1.00;0.90;;;22.40;39.00;;;;;;6369566;27;20113;-53
2023/05/17 10:47:30;;;;;;;1.23;0.85;;;22.60;38.90;;;;;;6372135;27;20046;-50
2023/05/17 10:50:36;;;;;;;1.40;1.02;;;22.70;38.50;;;;;;6370661;27;20125;-52
2023/05/17 10:54:07;;;;;;;1.42;1.00;;;23.00;38.50;;;;;;6374400;27;20062;-49
2023/05/17 10:57:19;;;;;;;1.20;0.93;;;23.00;38.20;;;;;;6345568;27;20039;-52
2023/05/17 11:00:20;;;;;;;;;;;23.10;38.20;;;;;;6376162;27;20039;-54
2023/05/17 11:03:27;;;;;;;1.23;0.85;;;23.00;38.50;;;;;;6377389;27;20587;-54
2023/05/17 11:06:37;;;;;;;1.10;0.98;;;23.00;38.10;;;;;;6375741;27;20034;-50
2023/05/17 11:09:39;;;;;;;1.15;1.00;;;23.00;37.80;;;;;;6373714;27;20175;-51
2023/05/17 11:12:43;;;;;;;1.00;0.88;;;22.60;37.40;;;;;;6374630;27;20134;-53
2023/05/17 11:16:01;;;;;;;1.40;0.93;;;22.90;37.10;;;;;;6377092;27;20038;-52
2023/05/17 11:19:08;;;;;;;0.80;0.73;;;23.30;37.30;;;;;;6379454;27;20046;-53
2023/05/17 11:22:11;;;;;;;1.38;1.05;;;22.80;36.90;;;;;;6370510;27;20738;-50
2023/05/17 11:25:13;;;;;;;1.30;0.88;;;23.20;37.20;;;;;;6378098;27;20042;-52
2023/05/17 11:28:18;;;;;;;1.00;0.90;;;23.20;36.90;;;;;;6373816;27;20707;-50
2023/05/17 11:31:30;;;;;;;0.85;0.60;;;22.80;36.60;;;;;;6375526;27;20208;-52
2023/05/17 11:34:33;;;;;;;0.95;0.60;;;23.10;36.70;;;;;;6377083;27;20125;-51
2023/05/17 11:37:36;;;;;;;0.68;0.57;;;23.20;36.50;;;;;;6377462;27;20035;-51
2023/05/17 11:40:40;;;;;;;0.60;0.60;;;23.30;35.90;;;;;;6374359;27;20063;-51
2023/05/17 11:43:47;;;;;;;0.50;0.50;;;23.20;35.70;;;;;;6360676;27;20046;-53
2023/05/17 11:46:50;;;;;;;1.10;0.82;;;23.30;36.20;;;;;;6379332;27;20039;-54
2023/05/17 11:49:53;;;;;;;0.73;0.60;;;22.90;35.90;;;;;;6376852;27;20034;-54
2023/05/17 11:52:59;;;;;;;0.88;0.57;;;23.30;36.30;;;;;;6357866;27;20058;-52
2023/05/17 11:56:03;;;;;;;1.90;1.08;;;24.00;36.70;;;;;;6374492;27;20031;-53
2023/05/17 11:59:06;;;;;;;1.92;1.23;;;23.30;36.50;;;;;;6371350;27;20724;-54
2023/05/17 12:02:08;;;;;;;2.85;1.45;;;23.30;36.70;;;;;;6371486;27;20084;-55
2023/05/17 12:05:11;;;;;;;2.60;1.80;;;21.90;35.80;;;;;;6349783;27;20529;-54
2023/05/17 12:08:16;;;;;;;5.28;1.10;;;23.30;36.50;;;;;;6372157;27;20690;-53
2023/05/17 12:11:18;;;;;;;1.67;1.25;;;23.20;36.30;;;;;;6374367;27;20073;-53
2023/05/17 12:14:20;;;;;;;1.77;1.30;;;23.20;36.30;;;;;;6374586;27;20035;-54
2023/05/17 12:17:29;;;;;;;2.13;1.00;;;23.40;36.10;;;;;;6377611;27;20627;-51
2023/05/17 12:20:34;;;;;;;2.03;1.02;;;23.50;36.00;;;;;;6361769;27;20035;-54
2023/05/17 12:23:38;;;;;;;1.33;0.70;;;23.50;35.90;;;;;;6375673;27;20781;-54
2023/05/17 12:26:43;;;;;;;0.75;0.70;;;23.40;35.60;;;;;;6344283;27;20122;-54
2023/05/17 12:29:46;;;;;;;2.05;1.20;;;23.30;35.30;;;;;;6335058;27;20074;-52
2023/05/17 12:32:49;;;;;;;1.25;0.90;;;23.60;35.40;;;;;;6363933;27;20071;-54
2023/05/17 12:35:52;;;;;;;0.82;0.70;;;23.60;35.50;;;;;;6345392;27;20600;-53
2023/05/17 12:38:55;;;;;;;1.08;0.80;;;22.80;35.10;;;;;;6327546;27;20050;-54
2023/05/17 12:41:57;;;;;;;1.58;1.05;;;23.60;35.10;;;;;;6348412;27;20070;-55
2023/05/17 12:44:59;;;;;;;1.30;0.90;;;23.60;34.80;;;;;;6368245;27;20035;-53
2023/05/17 12:48:01;;;;;;;1.63;1.00;;;23.70;34.60;;;;;;6364879;27;20046;-51
2023/05/17 12:51:06;;;;;;;1.45;1.20;;;23.60;34.60;;;;;;6336451;27;20030;-54
2023/05/17 12:54:09;;;;;;;1.60;1.20;;;23.80;34.30;;;;;;6353165;27;20053;-52
2023/05/17 12:57:13;;;;;;;0.93;0.77;;;23.60;34.10;;;;;;6317351;27;20041;-52
2023/05/17 13:00:18;;;;;;;1.40;1.10;;;23.60;34.10;;;;;;6331393;27;20102;-55
2023/05/17 13:03:20;;;;;;;2.08;0.93;;;23.70;34.10;;;;;;6348235;27;20704;-52
2023/05/17 13:06:22;;;;;;;1.30;0.80;;;23.90;34.10;;;;;;6368258;27;20027;-52
2023/05/17 13:09:26;;;;;;;0.95;0.75;;;23.50;33.80;;;;;;6367932;27;20118;-54
2023/05/17 13:12:28;;;;;;;1.55;1.30;;;23.70;33.80;;;;;;6359440;27;20038;-53
2023/05/17 13:15:29;;;;;;;;;;;23.60;33.80;;;;;;6370524;27;20034;-54
2023/05/17 13:18:46;;;;;;;1.83;1.30;;;23.30;33.70;;;;;;6325125;27;19922;-53
2023/05/17 13:21:48;;;;;;;2.55;1.05;;;23.70;33.70;;;;;;6364230;27;20694;-52
2023/05/17 13:24:50;;;;;;;0.98;0.85;;;23.40;33.70;;;;;;6369654;27;20110;-54
2023/05/17 13:27:54;;;;;;;0.80;0.70;;;23.80;33.60;;;;;;6367934;27;20478;-53
2023/05/17 13:30:55;;;;;;;1.42;1.15;;;23.90;33.70;;;;;;6365843;27;20259;-53
2023/05/17 13:33:58;;;;;;;1.42;1.10;;;23.90;33.70;;;;;;6368612;27;20035;-52
2023/05/17 13:37:00;;;;;;;1.52;1.00;;;23.60;33.30;;;;;;6377641;27;20763;-56
2023/05/17 13:40:03;;;;;;;1.85;0.98;;;23.80;33.40;;;;;;6376542;27;20042;-56
2023/05/17 13:43:04;;;;;;;2.70;1.35;;;23.80;33.20;;;;;;6376957;27;20027;-55
2023/05/17 13:46:08;;;;;;;1.20;0.93;;;23.90;33.30;;;;;;6366191;27;20704;-55
2023/05/17 13:49:09;;;;;;;1.52;0.90;;;24.00;33.40;;;;;;6343733;27;20042;-56
2023/05/17 13:52:12;;;;;;;2.22;1.38;;;23.80;33.30;;;;;;6361455;27;20039;-56
2023/05/17 13:55:14;;;;;;;1.80;1.50;;;23.70;33.00;;;;;;6360030;27;20035;-54
2023/05/17 13:58:16;;;;;;;1.80;1.48;;;24.00;33.00;;;;;;6363501;27;20031;-55
2023/05/17 14:01:18;;;;;;;2.17;1.48;;;24.00;32.90;;;;;;6370770;27;20031;-55
2023/05/17 14:04:20;;;;;;;1.95;0.95;;;24.00;33.70;;;;;;6376361;27;20033;-55
2023/05/17 14:07:22;;;;;;;1.45;0.90;;;24.00;32.90;;;;;;6356361;27;20054;-55
2023/05/17 14:10:24;;;;;;;2.33;1.40;;;23.90;32.90;;;;;;6371823;27;20773;-53
2023/05/17 14:13:26;;;;;;;3.05;1.60;;;22.60;32.10;;;;;;6372921;27;20039;-56
2023/05/17 14:16:29;;;;;;;3.45;1.60;;;24.20;33.00;;;;;;6373538;27;20027;-55
2023/05/17 14:19:33;;;;;;;3.67;1.75;;;24.00;32.80;;;;;;6347232;27;20928;-52
2023/05/17 14:22:35;;;;;;;1.98;1.58;;;23.80;33.00;;;;;;6340139;27;20693;-52
2023/05/17 14:25:37;;;;;;;1.77;1.40;;;24.00;33.10;;;;;;6340106;27;20030;-54
2023/05/17 14:28:39;;;;;;;3.60;1.50;;;23.80;32.90;;;;;;6356768;27;20037;-51
2023/05/17 14:31:40;;;;;;;2.28;1.40;;;23.70;32.60;;;;;;6344319;27;20054;-52
2023/05/17 14:34:41;;;;;;;2.13;1.35;;;24.00;32.90;;;;;;6338209;27;20058;-51
2023/05/17 14:37:43;;;;;;;;;;;24.20;33.00;;;;;;6348028;27;20038;-54
2023/05/17 14:40:45;;;;;;;2.05;1.50;;;23.80;32.70;;;;;;6354432;27;19923;-55
2023/05/17 14:43:48;;;;;;;2.72;1.17;;;23.90;32.70;;;;;;6364048;27;20073;-51
2023/05/17 14:46:50;;;;;;;2.60;1.30;;;24.10;32.70;;;;;;6368168;27;20692;-53
2023/05/17 14:49:51;;;;;;;1.77;1.40;;;24.00;32.70;;;;;;6373829;27;20043;-53
2023/05/17 14:52:56;;;;;;;2.03;1.30;;;24.00;32.90;;;;;;6373115;27;20767;-56
2023/05/17 14:55:58;;;;;;;1.58;1.25;;;23.80;32.90;;;;;;6372954;27;20035;-58
2023/05/17 14:58:59;;;;;;;2.55;1.25;;;24.00;33.10;;;;;;6363584;27;20058;-56
2023/05/17 15:02:01;;;;;;;1.85;1.00;;;24.00;33.30;;;;;;6354535;27;20550;-57
2023/05/17 15:05:03;;;;;;;2.30;1.00;;;23.90;33.10;;;;;;6364553;27;20685;-53
2023/05/17 15:08:07;;;;;;;1.55;0.80;;;23.90;33.30;;;;;;6355438;27;20049;-54
2023/05/17 15:11:09;;;;;;;1.63;1.00;;;23.90;33.20;;;;;;6370750;27;20035;-55
2023/05/17 15:14:11;;;;;;;1.42;0.90;;;23.90;33.20;;;;;;6365157;27;20101;-53
2023/05/17 15:17:12;;;;;;;1.60;1.10;;;23.60;33.00;;;;;;6374321;27;20031;-55
2023/05/17 15:20:14;;;;;;;1.98;1.30;;;24.00;33.20;;;;;;6373439;27;20792;-55
2023/05/17 15:23:16;;;;;;;1.30;1.20;;;23.80;33.00;;;;;;6375648;27;20604;-54
2023/05/17 15:26:20;;;;;;;2.00;1.20;;;23.80;33.00;;;;;;6370736;27;20060;-55
2023/05/17 15:29:22;;;;;;;2.28;1.40;;;24.00;33.00;;;;;;6361360;27;20723;-57
2023/05/17 15:32:23;;;;;;;11.32;1.30;;;24.00;33.30;;;;;;6363091;27;20042;-53
2023/05/17 15:35:25;;;;;;;2.42;1.05;;;23.80;33.30;;;;;;6318079;27;20047;-55
2023/05/17 15:38:27;;;;;;;1.20;0.90;;;24.00;33.30;;;;;;6368910;27;20793;-54
2023/05/17 15:41:30;;;;;;;0.80;0.60;;;23.90;33.40;;;;;;6371436;27;20764;-52
2023/05/17 15:44:32;;;;;;;1.00;0.70;;;23.90;33.30;;;;;;6354125;27;20038;-54
2023/05/17 15:47:35;;;;;;;0.60;0.50;;;23.90;33.40;;;;;;6372757;27;20038;-52
2023/05/17 15:50:44;;;;;;;0.60;0.50;;;24.00;33.30;;;;;;6371773;27;20087;-53
2023/05/17 15:53:47;;;;;;;;;;;24.10;33.30;;;;;;6370654;27;20035;-52
2023/05/17 15:56:50;;;;;;;0.75;0.60;;;24.10;33.70;;;;;;6343164;27;19939;-52
2023/05/17 15:59:52;;;;;;;0.80;0.50;;;24.10;33.60;;;;;;6344185;27;20046;-52
2023/05/17 16:02:56;;;;;;;0.70;0.60;;;24.00;33.40;;;;;;6374216;27;20031;-56